sensor_id;sensor_type;location;lat;lon;timestamp;temperature;humidity
30648;DHT22;17683;53.360;9.736;2022-09-03T00:02:23;15.80;93.30
30648;DHT22;17683;53.360;9.736;2022-09-03T00:05:55;15.80;93.40
30648;DHT22;17683;53.360;9.736;2022-09-03T00:08:56;15.70;93.40
30648;DHT22;17683;53.360;9.736;2022-09-03T00:11:32;15.70;93.40
30648;DHT22;17683;53.360;9.736;2022-09-03T00:14:06;15.70;93.60
30648;DHT22;17683;53.360;9.736;2022-09-03T00:16:48;15.60;93.60
30648;DHT22;17683;53.360;9.736;2022-09-03T00:19:22;15.60;93.60
30648;DHT22;17683;53.360;9.736;2022-09-03T00:22:02;15.60;93.60
30648;DHT22;17683;53.360;9.736;2022-09-03T00:24:35;15.60;93.60
30648;DHT22;17683;53.360;9.736;2022-09-03T00:27:06;15.50;93.80
30648;DHT22;17683;53.360;9.736;2022-09-03T00:30:25;15.50;93.70
30648;DHT22;17683;53.360;9.736;2022-09-03T00:32:50;15.50;93.60
30648;DHT22;17683;53.360;9.736;2022-09-03T00:35:27;15.50;93.90
30648;DHT22;17683;53.360;9.736;2022-09-03T00:37:54;15.40;94.00
30648;DHT22;17683;53.360;9.736;2022-09-03T00:46:29;15.40;93.90
30648;DHT22;17683;53.360;9.736;2022-09-03T00:49:30;15.30;94.00
30648;DHT22;17683;53.360;9.736;2022-09-03T00:52:22;15.40;93.80
30648;DHT22;17683;53.360;9.736;2022-09-03T00:55:01;15.30;93.90
30648;DHT22;17683;53.360;9.736;2022-09-03T01:00:11;15.30;94.00
30648;DHT22;17683;53.360;9.736;2022-09-03T01:06:01;15.30;93.90
30648;DHT22;17683;53.360;9.736;2022-09-03T01:14:15;15.20;93.80
30648;DHT22;17683;53.360;9.736;2022-09-03T01:23:05;15.10;94.10
30648;DHT22;17683;53.360;9.736;2022-09-03T01:33:43;15.00;94.10
30648;DHT22;17683;53.360;9.736;2022-09-03T01:38:50;15.00;94.20
30648;DHT22;17683;53.360;9.736;2022-09-03T01:47:23;14.90;94.20
30648;DHT22;17683;53.360;9.736;2022-09-03T01:50:09;15.00;94.30
30648;DHT22;17683;53.360;9.736;2022-09-03T01:52:45;14.90;94.30
30648;DHT22;17683;53.360;9.736;2022-09-03T01:58:17;14.90;94.40
30648;DHT22;17683;53.360;9.736;2022-09-03T02:00:50;14.80;94.40
30648;DHT22;17683;53.360;9.736;2022-09-03T02:03:23;14.80;94.40
30648;DHT22;17683;53.360;9.736;2022-09-03T02:05:49;14.70;94.50
30648;DHT22;17683;53.360;9.736;2022-09-03T02:08:17;14.80;94.60
30648;DHT22;17683;53.360;9.736;2022-09-03T02:10:54;14.70;94.50
30648;DHT22;17683;53.360;9.736;2022-09-03T02:13:31;14.70;94.50
30648;DHT22;17683;53.360;9.736;2022-09-03T02:16:05;14.70;94.60
30648;DHT22;17683;53.360;9.736;2022-09-03T02:18:41;14.70;94.50
30648;DHT22;17683;53.360;9.736;2022-09-03T02:21:08;14.70;94.50
30648;DHT22;17683;53.360;9.736;2022-09-03T02:23:38;14.70;94.50
30648;DHT22;17683;53.360;9.736;2022-09-03T02:26:06;14.70;94.50
30648;DHT22;17683;53.360;9.736;2022-09-03T02:28:33;14.60;94.80
30648;DHT22;17683;53.360;9.736;2022-09-03T02:31:00;14.60;94.50
30648;DHT22;17683;53.360;9.736;2022-09-03T02:33:25;14.60;94.60
30648;DHT22;17683;53.360;9.736;2022-09-03T02:35:52;14.60;94.70
30648;DHT22;17683;53.360;9.736;2022-09-03T02:38:20;14.60;94.70
30648;DHT22;17683;53.360;9.736;2022-09-03T02:40:46;14.50;94.60
30648;DHT22;17683;53.360;9.736;2022-09-03T02:43:40;14.50;94.70
30648;DHT22;17683;53.360;9.736;2022-09-03T02:46:07;14.50;94.70
30648;DHT22;17683;53.360;9.736;2022-09-03T02:48:34;14.50;94.70
30648;DHT22;17683;53.360;9.736;2022-09-03T02:51:00;14.50;94.70
30648;DHT22;17683;53.360;9.736;2022-09-03T02:53:26;14.50;94.80
30648;DHT22;17683;53.360;9.736;2022-09-03T02:56:00;14.50;94.80
30648;DHT22;17683;53.360;9.736;2022-09-03T02:58:26;14.50;94.80
30648;DHT22;17683;53.360;9.736;2022-09-03T03:00:53;14.40;94.90
30648;DHT22;17683;53.360;9.736;2022-09-03T03:03:19;14.40;94.90
30648;DHT22;17683;53.360;9.736;2022-09-03T03:05:46;14.30;95.00
30648;DHT22;17683;53.360;9.736;2022-09-03T03:08:13;14.30;95.10
30648;DHT22;17683;53.360;9.736;2022-09-03T03:10:42;14.30;95.00
30648;DHT22;17683;53.360;9.736;2022-09-03T03:13:10;14.30;95.10
30648;DHT22;17683;53.360;9.736;2022-09-03T03:15:35;14.30;95.10
30648;DHT22;17683;53.360;9.736;2022-09-03T03:18:01;14.20;95.10
30648;DHT22;17683;53.360;9.736;2022-09-03T03:20:27;14.20;95.10
30648;DHT22;17683;53.360;9.736;2022-09-03T03:22:53;14.20;95.00
30648;DHT22;17683;53.360;9.736;2022-09-03T03:25:19;14.20;95.10
30648;DHT22;17683;53.360;9.736;2022-09-03T03:27:44;14.20;95.20
30648;DHT22;17683;53.360;9.736;2022-09-03T03:30:11;14.20;95.30
30648;DHT22;17683;53.360;9.736;2022-09-03T03:32:37;14.20;95.30
30648;DHT22;17683;53.360;9.736;2022-09-03T03:35:04;14.10;95.20
30648;DHT22;17683;53.360;9.736;2022-09-03T03:37:31;14.10;95.20
30648;DHT22;17683;53.360;9.736;2022-09-03T03:39:57;14.10;95.20
30648;DHT22;17683;53.360;9.736;2022-09-03T03:42:23;14.10;95.30
30648;DHT22;17683;53.360;9.736;2022-09-03T03:44:49;14.10;95.30
30648;DHT22;17683;53.360;9.736;2022-09-03T03:47:15;14.00;95.30
30648;DHT22;17683;53.360;9.736;2022-09-03T03:49:42;14.00;95.40
30648;DHT22;17683;53.360;9.736;2022-09-03T03:52:08;14.00;95.40
30648;DHT22;17683;53.360;9.736;2022-09-03T03:54:33;14.00;95.50
30648;DHT22;17683;53.360;9.736;2022-09-03T03:56:59;14.00;95.40
30648;DHT22;17683;53.360;9.736;2022-09-03T03:59:25;13.90;95.70
30648;DHT22;17683;53.360;9.736;2022-09-03T04:01:53;13.90;95.60
30648;DHT22;17683;53.360;9.736;2022-09-03T04:04:19;13.80;95.70
30648;DHT22;17683;53.360;9.736;2022-09-03T04:06:45;13.80;95.80
30648;DHT22;17683;53.360;9.736;2022-09-03T04:09:11;13.80;95.80
30648;DHT22;17683;53.360;9.736;2022-09-03T04:11:36;13.80;95.80
30648;DHT22;17683;53.360;9.736;2022-09-03T04:14:03;13.70;95.90
30648;DHT22;17683;53.360;9.736;2022-09-03T04:16:29;13.70;95.80
30648;DHT22;17683;53.360;9.736;2022-09-03T04:18:57;13.70;95.80
30648;DHT22;17683;53.360;9.736;2022-09-03T04:21:28;13.70;95.80
30648;DHT22;17683;53.360;9.736;2022-09-03T04:23:55;13.70;95.80
30648;DHT22;17683;53.360;9.736;2022-09-03T04:26:24;13.70;95.80
30648;DHT22;17683;53.360;9.736;2022-09-03T04:28:50;13.70;95.80
30648;DHT22;17683;53.360;9.736;2022-09-03T04:31:18;13.70;95.90
30648;DHT22;17683;53.360;9.736;2022-09-03T04:33:44;13.60;95.90
30648;DHT22;17683;53.360;9.736;2022-09-03T04:36:16;13.60;95.80
30648;DHT22;17683;53.360;9.736;2022-09-03T04:38:44;13.60;95.80
30648;DHT22;17683;53.360;9.736;2022-09-03T04:41:14;13.60;95.90
30648;DHT22;17683;53.360;9.736;2022-09-03T04:43:40;13.60;95.90
30648;DHT22;17683;53.360;9.736;2022-09-03T04:46:09;13.60;95.90
30648;DHT22;17683;53.360;9.736;2022-09-03T04:48:35;13.60;95.90
30648;DHT22;17683;53.360;9.736;2022-09-03T04:51:10;13.60;95.70
30648;DHT22;17683;53.360;9.736;2022-09-03T04:53:39;13.60;95.80
30648;DHT22;17683;53.360;9.736;2022-09-03T04:56:20;13.60;95.80
30648;DHT22;17683;53.360;9.736;2022-09-03T04:58:47;13.60;95.90
30648;DHT22;17683;53.360;9.736;2022-09-03T05:01:19;13.60;96.10
30648;DHT22;17683;53.360;9.736;2022-09-03T05:03:45;13.60;95.90
30648;DHT22;17683;53.360;9.736;2022-09-03T05:06:12;13.60;95.90
30648;DHT22;17683;53.360;9.736;2022-09-03T05:08:42;13.60;95.90
30648;DHT22;17683;53.360;9.736;2022-09-03T05:11:09;13.60;96.00
30648;DHT22;17683;53.360;9.736;2022-09-03T05:13:35;13.60;96.00
30648;DHT22;17683;53.360;9.736;2022-09-03T05:16:06;13.60;96.00
30648;DHT22;17683;53.360;9.736;2022-09-03T05:18:33;13.60;96.00
30648;DHT22;17683;53.360;9.736;2022-09-03T05:21:10;13.60;96.00
30648;DHT22;17683;53.360;9.736;2022-09-03T05:23:38;13.60;96.00
30648;DHT22;17683;53.360;9.736;2022-09-03T05:26:06;13.60;96.00
30648;DHT22;17683;53.360;9.736;2022-09-03T05:28:36;13.60;96.00
30648;DHT22;17683;53.360;9.736;2022-09-03T05:31:05;13.60;95.90
30648;DHT22;17683;53.360;9.736;2022-09-03T05:33:35;13.60;96.00
30648;DHT22;17683;53.360;9.736;2022-09-03T05:36:04;13.60;96.10
30648;DHT22;17683;53.360;9.736;2022-09-03T05:38:30;13.60;96.20
30648;DHT22;17683;53.360;9.736;2022-09-03T05:41:05;13.70;96.10
30648;DHT22;17683;53.360;9.736;2022-09-03T05:43:31;13.70;96.00
30648;DHT22;17683;53.360;9.736;2022-09-03T05:45:59;13.70;95.90
30648;DHT22;17683;53.360;9.736;2022-09-03T05:48:26;13.70;96.00
30648;DHT22;17683;53.360;9.736;2022-09-03T05:53:31;13.80;96.10
30648;DHT22;17683;53.360;9.736;2022-09-03T05:56:01;13.90;96.30
30648;DHT22;17683;53.360;9.736;2022-09-03T05:58:35;13.90;96.00
30648;DHT22;17683;53.360;9.736;2022-09-03T06:01:21;14.00;96.10
30648;DHT22;17683;53.360;9.736;2022-09-03T06:03:53;14.10;95.90
30648;DHT22;17683;53.360;9.736;2022-09-03T06:06:20;14.20;96.10
30648;DHT22;17683;53.360;9.736;2022-09-03T06:09:01;14.20;95.80
30648;DHT22;17683;53.360;9.736;2022-09-03T06:11:27;14.40;95.90
30648;DHT22;17683;53.360;9.736;2022-09-03T06:13:58;14.50;95.60
30648;DHT22;17683;53.360;9.736;2022-09-03T06:16:28;14.60;95.40
30648;DHT22;17683;53.360;9.736;2022-09-03T06:18:54;14.70;95.30
30648;DHT22;17683;53.360;9.736;2022-09-03T06:21:19;14.80;95.30
30648;DHT22;17683;53.360;9.736;2022-09-03T06:23:53;14.80;95.20
30648;DHT22;17683;53.360;9.736;2022-09-03T06:26:21;14.90;95.00
30648;DHT22;17683;53.360;9.736;2022-09-03T06:28:47;15.00;95.10
30648;DHT22;17683;53.360;9.736;2022-09-03T06:31:16;15.20;95.10
30648;DHT22;17683;53.360;9.736;2022-09-03T06:33:42;15.30;94.80
30648;DHT22;17683;53.360;9.736;2022-09-03T06:36:11;15.50;94.60
30648;DHT22;17683;53.360;9.736;2022-09-03T06:38:41;15.60;94.50
30648;DHT22;17683;53.360;9.736;2022-09-03T06:41:18;15.80;94.30
30648;DHT22;17683;53.360;9.736;2022-09-03T06:43:46;16.00;94.00
30648;DHT22;17683;53.360;9.736;2022-09-03T06:46:14;16.20;93.70
30648;DHT22;17683;53.360;9.736;2022-09-03T06:48:41;16.20;93.40
30648;DHT22;17683;53.360;9.736;2022-09-03T06:51:21;16.30;93.50
30648;DHT22;17683;53.360;9.736;2022-09-03T06:53:53;16.40;93.40
30648;DHT22;17683;53.360;9.736;2022-09-03T06:56:23;16.60;93.20
30648;DHT22;17683;53.360;9.736;2022-09-03T06:58:53;16.70;93.20
30648;DHT22;17683;53.360;9.736;2022-09-03T07:01:22;16.80;93.20
30648;DHT22;17683;53.360;9.736;2022-09-03T07:03:52;16.90;93.20
30648;DHT22;17683;53.360;9.736;2022-09-03T07:06:23;17.00;92.60
30648;DHT22;17683;53.360;9.736;2022-09-03T07:08:49;17.10;92.90
30648;DHT22;17683;53.360;9.736;2022-09-03T07:11:17;17.20;92.50
30648;DHT22;17683;53.360;9.736;2022-09-03T07:13:46;17.40;92.60
30648;DHT22;17683;53.360;9.736;2022-09-03T07:16:16;17.50;92.10
30648;DHT22;17683;53.360;9.736;2022-09-03T07:18:42;17.60;92.00
30648;DHT22;17683;53.360;9.736;2022-09-03T07:21:11;17.60;92.10
30648;DHT22;17683;53.360;9.736;2022-09-03T07:23:38;17.70;91.90
30648;DHT22;17683;53.360;9.736;2022-09-03T07:26:10;17.70;92.50
30648;DHT22;17683;53.360;9.736;2022-09-03T07:28:38;17.90;92.10
30648;DHT22;17683;53.360;9.736;2022-09-03T07:31:07;18.00;92.10
30648;DHT22;17683;53.360;9.736;2022-09-03T07:33:33;18.10;91.60
30648;DHT22;17683;53.360;9.736;2022-09-03T07:36:26;18.30;91.60
30648;DHT22;17683;53.360;9.736;2022-09-03T07:38:57;18.40;91.30
30648;DHT22;17683;53.360;9.736;2022-09-03T07:41:25;18.50;90.90
30648;DHT22;17683;53.360;9.736;2022-09-03T07:43:52;18.60;91.10
30648;DHT22;17683;53.360;9.736;2022-09-03T07:46:19;18.70;91.40
30648;DHT22;17683;53.360;9.736;2022-09-03T07:48:49;18.90;91.20
30648;DHT22;17683;53.360;9.736;2022-09-03T07:51:17;19.00;90.90
30648;DHT22;17683;53.360;9.736;2022-09-03T07:53:47;19.10;91.10
30648;DHT22;17683;53.360;9.736;2022-09-03T07:56:13;19.30;90.40
30648;DHT22;17683;53.360;9.736;2022-09-03T07:58:40;19.30;90.40
30648;DHT22;17683;53.360;9.736;2022-09-03T08:01:18;19.30;90.10
30648;DHT22;17683;53.360;9.736;2022-09-03T08:03:51;19.50;90.30
30648;DHT22;17683;53.360;9.736;2022-09-03T08:06:19;19.60;90.00
30648;DHT22;17683;53.360;9.736;2022-09-03T08:08:46;19.60;90.00
30648;DHT22;17683;53.360;9.736;2022-09-03T08:11:17;19.70;89.50
30648;DHT22;17683;53.360;9.736;2022-09-03T08:13:58;19.70;89.70
30648;DHT22;17683;53.360;9.736;2022-09-03T08:16:36;19.80;89.20
30648;DHT22;17683;53.360;9.736;2022-09-03T08:19:02;19.90;89.30
30648;DHT22;17683;53.360;9.736;2022-09-03T08:21:28;20.00;89.80
30648;DHT22;17683;53.360;9.736;2022-09-03T08:23:55;20.20;88.60
30648;DHT22;17683;53.360;9.736;2022-09-03T08:26:32;20.30;88.30
30648;DHT22;17683;53.360;9.736;2022-09-03T08:28:58;20.40;87.40
30648;DHT22;17683;53.360;9.736;2022-09-03T08:31:24;20.40;86.90
30648;DHT22;17683;53.360;9.736;2022-09-03T08:33:53;20.40;87.30
30648;DHT22;17683;53.360;9.736;2022-09-03T08:36:21;20.50;87.80
30648;DHT22;17683;53.360;9.736;2022-09-03T08:38:48;20.60;87.60
30648;DHT22;17683;53.360;9.736;2022-09-03T08:44:22;20.80;86.60
30648;DHT22;17683;53.360;9.736;2022-09-03T08:49:47;20.90;86.20
30648;DHT22;17683;53.360;9.736;2022-09-03T08:52:41;20.90;86.00
30648;DHT22;17683;53.360;9.736;2022-09-03T08:55:24;21.00;86.40
30648;DHT22;17683;53.360;9.736;2022-09-03T09:00:23;21.20;85.90
30648;DHT22;17683;53.360;9.736;2022-09-03T09:08:28;21.70;85.10
30648;DHT22;17683;53.360;9.736;2022-09-03T09:11:13;21.80;83.80
30648;DHT22;17683;53.360;9.736;2022-09-03T09:14:03;21.90;84.00
30648;DHT22;17683;53.360;9.736;2022-09-03T09:19:35;21.90;82.90
30648;DHT22;17683;53.360;9.736;2022-09-03T09:22:28;21.90;83.20
30648;DHT22;17683;53.360;9.736;2022-09-03T09:24:57;21.90;82.50
30648;DHT22;17683;53.360;9.736;2022-09-03T09:27:23;22.00;83.20
30648;DHT22;17683;53.360;9.736;2022-09-03T09:29:50;22.10;82.70
30648;DHT22;17683;53.360;9.736;2022-09-03T09:32:18;22.20;82.10
30648;DHT22;17683;53.360;9.736;2022-09-03T09:34:44;22.30;82.10
30648;DHT22;17683;53.360;9.736;2022-09-03T09:37:14;22.30;81.60
30648;DHT22;17683;53.360;9.736;2022-09-03T09:39:41;22.30;82.20
30648;DHT22;17683;53.360;9.736;2022-09-03T09:42:21;22.30;83.10
30648;DHT22;17683;53.360;9.736;2022-09-03T09:44:47;22.30;82.30
30648;DHT22;17683;53.360;9.736;2022-09-03T09:47:24;22.40;81.40
30648;DHT22;17683;53.360;9.736;2022-09-03T09:49:56;22.50;81.80
30648;DHT22;17683;53.360;9.736;2022-09-03T09:52:25;22.40;81.10
30648;DHT22;17683;53.360;9.736;2022-09-03T09:54:53;22.40;81.10
30648;DHT22;17683;53.360;9.736;2022-09-03T09:57:31;22.30;81.90
30648;DHT22;17683;53.360;9.736;2022-09-03T10:02:34;22.40;81.40
30648;DHT22;17683;53.360;9.736;2022-09-03T10:05:35;22.40;81.00
30648;DHT22;17683;53.360;9.736;2022-09-03T10:08:20;22.50;79.80
30648;DHT22;17683;53.360;9.736;2022-09-03T10:10:48;22.70;78.80
30648;DHT22;17683;53.360;9.736;2022-09-03T10:13:25;22.80;78.30
30648;DHT22;17683;53.360;9.736;2022-09-03T10:15:58;22.80;77.50
30648;DHT22;17683;53.360;9.736;2022-09-03T10:21:05;23.00;77.30
30648;DHT22;17683;53.360;9.736;2022-09-03T10:24:18;23.20;77.20
30648;DHT22;17683;53.360;9.736;2022-09-03T10:26:50;23.40;77.80
30648;DHT22;17683;53.360;9.736;2022-09-03T10:29:18;23.50;76.60
30648;DHT22;17683;53.360;9.736;2022-09-03T10:32:14;23.60;76.30
30648;DHT22;17683;53.360;9.736;2022-09-03T10:35:12;23.60;76.00
30648;DHT22;17683;53.360;9.736;2022-09-03T10:37:46;23.60;75.70
30648;DHT22;17683;53.360;9.736;2022-09-03T10:40:37;23.60;76.70
30648;DHT22;17683;53.360;9.736;2022-09-03T10:45:54;23.80;76.40
30648;DHT22;17683;53.360;9.736;2022-09-03T10:51:14;24.00;75.70
30648;DHT22;17683;53.360;9.736;2022-09-03T10:54:05;24.00;75.50
30648;DHT22;17683;53.360;9.736;2022-09-03T11:05:19;24.30;73.40
30648;DHT22;17683;53.360;9.736;2022-09-03T11:07:51;24.40;72.30
30648;DHT22;17683;53.360;9.736;2022-09-03T11:10:25;24.30;72.50
30648;DHT22;17683;53.360;9.736;2022-09-03T11:13:23;24.40;73.90
30648;DHT22;17683;53.360;9.736;2022-09-03T11:16:27;24.50;72.30
30648;DHT22;17683;53.360;9.736;2022-09-03T11:18:47;24.50;72.00
30648;DHT22;17683;53.360;9.736;2022-09-03T11:21:16;24.50;72.30
30648;DHT22;17683;53.360;9.736;2022-09-03T11:23:46;24.50;71.70
30648;DHT22;17683;53.360;9.736;2022-09-03T11:26:18;24.60;72.90
30648;DHT22;17683;53.360;9.736;2022-09-03T11:31:19;24.80;73.10
30648;DHT22;17683;53.360;9.736;2022-09-03T11:33:57;24.90;72.90
30648;DHT22;17683;53.360;9.736;2022-09-03T11:36:30;25.10;72.20
30648;DHT22;17683;53.360;9.736;2022-09-03T11:38:57;25.20;71.20
30648;DHT22;17683;53.360;9.736;2022-09-03T11:41:26;25.00;70.70
30648;DHT22;17683;53.360;9.736;2022-09-03T11:43:52;24.70;69.90
30648;DHT22;17683;53.360;9.736;2022-09-03T11:48:52;24.50;72.60
30648;DHT22;17683;53.360;9.736;2022-09-03T11:56:41;24.60;70.80
30648;DHT22;17683;53.360;9.736;2022-09-03T12:01:52;24.50;71.10
30648;DHT22;17683;53.360;9.736;2022-09-03T12:07:24;24.30;70.20
30648;DHT22;17683;53.360;9.736;2022-09-03T12:13:32;24.40;71.90
30648;DHT22;17683;53.360;9.736;2022-09-03T12:18:36;24.40;70.40
30648;DHT22;17683;53.360;9.736;2022-09-03T12:21:06;24.30;70.80
30648;DHT22;17683;53.360;9.736;2022-09-03T12:23:44;24.30;69.70
30648;DHT22;17683;53.360;9.736;2022-09-03T12:26:26;24.20;70.30
30648;DHT22;17683;53.360;9.736;2022-09-03T12:28:55;24.20;70.60
30648;DHT22;17683;53.360;9.736;2022-09-03T12:31:32;24.10;69.60
30648;DHT22;17683;53.360;9.736;2022-09-03T12:34:14;24.10;69.90
30648;DHT22;17683;53.360;9.736;2022-09-03T12:36:43;24.10;71.00
30648;DHT22;17683;53.360;9.736;2022-09-03T12:39:16;24.10;70.70
30648;DHT22;17683;53.360;9.736;2022-09-03T12:41:51;24.20;70.30
30648;DHT22;17683;53.360;9.736;2022-09-03T12:44:26;24.20;70.40
30648;DHT22;17683;53.360;9.736;2022-09-03T12:47:14;24.20;70.40
30648;DHT22;17683;53.360;9.736;2022-09-03T12:49:44;24.00;70.80
30648;DHT22;17683;53.360;9.736;2022-09-03T12:52:20;23.80;70.60
30648;DHT22;17683;53.360;9.736;2022-09-03T12:57:21;23.50;71.10
30648;DHT22;17683;53.360;9.736;2022-09-03T12:59:48;23.40;71.40
30648;DHT22;17683;53.360;9.736;2022-09-03T13:02:22;23.40;72.20
30648;DHT22;17683;53.360;9.736;2022-09-03T13:04:50;23.50;71.60
30648;DHT22;17683;53.360;9.736;2022-09-03T13:07:24;23.60;71.50
30648;DHT22;17683;53.360;9.736;2022-09-03T13:09:51;23.80;72.60
30648;DHT22;17683;53.360;9.736;2022-09-03T13:12:28;24.00;71.80
30648;DHT22;17683;53.360;9.736;2022-09-03T13:14:55;24.10;70.80
30648;DHT22;17683;53.360;9.736;2022-09-03T13:17:45;24.00;70.20
30648;DHT22;17683;53.360;9.736;2022-09-03T13:20:25;24.00;71.70
30648;DHT22;17683;53.360;9.736;2022-09-03T13:23:28;24.00;70.60
30648;DHT22;17683;53.360;9.736;2022-09-03T13:26:42;24.00;71.30
30648;DHT22;17683;53.360;9.736;2022-09-03T13:28:58;24.00;70.80
30648;DHT22;17683;53.360;9.736;2022-09-03T13:31:46;24.10;70.40
30648;DHT22;17683;53.360;9.736;2022-09-03T13:34:21;24.10;71.20
30648;DHT22;17683;53.360;9.736;2022-09-03T13:50:06;24.00;70.60
30648;DHT22;17683;53.360;9.736;2022-09-03T13:55:22;23.90;70.50
30648;DHT22;17683;53.360;9.736;2022-09-03T14:03:43;24.00;70.30
30648;DHT22;17683;53.360;9.736;2022-09-03T14:06:37;24.00;70.20
30648;DHT22;17683;53.360;9.736;2022-09-03T14:09:14;24.00;69.60
30648;DHT22;17683;53.360;9.736;2022-09-03T14:11:56;24.00;70.50
30648;DHT22;17683;53.360;9.736;2022-09-03T14:25:36;23.80;69.10
30648;DHT22;17683;53.360;9.736;2022-09-03T14:28:28;23.80;69.80
30648;DHT22;17683;53.360;9.736;2022-09-03T14:31:05;23.70;70.40
30648;DHT22;17683;53.360;9.736;2022-09-03T14:39:19;23.70;70.20
30648;DHT22;17683;53.360;9.736;2022-09-03T14:41:52;23.70;69.60
30648;DHT22;17683;53.360;9.736;2022-09-03T14:47:29;23.60;68.90
30648;DHT22;17683;53.360;9.736;2022-09-03T14:56:35;23.30;69.30
30648;DHT22;17683;53.360;9.736;2022-09-03T15:02:09;23.30;69.10
30648;DHT22;17683;53.360;9.736;2022-09-03T15:12:33;23.00;71.00
30648;DHT22;17683;53.360;9.736;2022-09-03T15:15:07;23.10;70.80
30648;DHT22;17683;53.360;9.736;2022-09-03T15:20:36;23.10;70.20
30648;DHT22;17683;53.360;9.736;2022-09-03T15:31:54;22.90;69.70
30648;DHT22;17683;53.360;9.736;2022-09-03T15:34:54;22.90;70.10
30648;DHT22;17683;53.360;9.736;2022-09-03T15:37:25;22.90;69.90
30648;DHT22;17683;53.360;9.736;2022-09-03T15:40:09;22.80;70.20
30648;DHT22;17683;53.360;9.736;2022-09-03T15:42:41;22.80;70.40
30648;DHT22;17683;53.360;9.736;2022-09-03T15:45:29;22.80;69.20
30648;DHT22;17683;53.360;9.736;2022-09-03T15:53:57;22.60;69.50
30648;DHT22;17683;53.360;9.736;2022-09-03T15:56:34;22.60;70.20
30648;DHT22;17683;53.360;9.736;2022-09-03T15:59:16;22.50;70.20
30648;DHT22;17683;53.360;9.736;2022-09-03T16:07:36;22.40;71.60
30648;DHT22;17683;53.360;9.736;2022-09-03T16:10:14;22.40;71.30
30648;DHT22;17683;53.360;9.736;2022-09-03T16:13:01;22.40;71.20
30648;DHT22;17683;53.360;9.736;2022-09-03T16:15:37;22.40;71.20
30648;DHT22;17683;53.360;9.736;2022-09-03T16:20:42;22.20;71.50
30648;DHT22;17683;53.360;9.736;2022-09-03T16:28:54;22.10;71.30
30648;DHT22;17683;53.360;9.736;2022-09-03T16:47:59;21.70;72.20
30648;DHT22;17683;53.360;9.736;2022-09-03T16:53:41;21.60;73.10
30648;DHT22;17683;53.360;9.736;2022-09-03T16:56:25;21.50;72.70
30648;DHT22;17683;53.360;9.736;2022-09-03T17:01:59;21.40;73.30
30648;DHT22;17683;53.360;9.736;2022-09-03T17:10:14;21.20;74.00
30648;DHT22;17683;53.360;9.736;2022-09-03T17:13:06;21.10;73.60
30648;DHT22;17683;53.360;9.736;2022-09-03T17:15:43;21.00;73.90
30648;DHT22;17683;53.360;9.736;2022-09-03T17:18:21;21.00;74.30
30648;DHT22;17683;53.360;9.736;2022-09-03T17:26:29;20.90;74.50
30648;DHT22;17683;53.360;9.736;2022-09-03T17:29:32;20.90;74.30
30648;DHT22;17683;53.360;9.736;2022-09-03T17:32:29;20.80;74.40
30648;DHT22;17683;53.360;9.736;2022-09-03T17:35:09;20.70;75.00
30648;DHT22;17683;53.360;9.736;2022-09-03T17:40:40;20.60;76.10
30648;DHT22;17683;53.360;9.736;2022-09-03T17:46:03;20.50;75.50
30648;DHT22;17683;53.360;9.736;2022-09-03T17:48:42;20.40;75.70
30648;DHT22;17683;53.360;9.736;2022-09-03T17:51:43;20.30;77.00
30648;DHT22;17683;53.360;9.736;2022-09-03T17:59:41;20.20;76.50
30648;DHT22;17683;53.360;9.736;2022-09-03T18:12:50;19.80;78.30
30648;DHT22;17683;53.360;9.736;2022-09-03T18:15:28;19.70;78.70
30648;DHT22;17683;53.360;9.736;2022-09-03T18:20:40;19.50;79.00
30648;DHT22;17683;53.360;9.736;2022-09-03T18:26:35;19.30;79.20
30648;DHT22;17683;53.360;9.736;2022-09-03T18:29:31;19.30;79.60
30648;DHT22;17683;53.360;9.736;2022-09-03T18:32:17;19.20;79.80
30648;DHT22;17683;53.360;9.736;2022-09-03T18:35:01;19.10;79.80
30648;DHT22;17683;53.360;9.736;2022-09-03T18:37:45;19.00;80.00
30648;DHT22;17683;53.360;9.736;2022-09-03T18:40:48;19.00;80.30
30648;DHT22;17683;53.360;9.736;2022-09-03T18:50:03;18.80;80.40
30648;DHT22;17683;53.360;9.736;2022-09-03T18:56:15;18.60;80.30
30648;DHT22;17683;53.360;9.736;2022-09-03T19:01:55;18.60;81.50
30648;DHT22;17683;53.360;9.736;2022-09-03T19:05:05;18.50;81.30
30648;DHT22;17683;53.360;9.736;2022-09-03T19:08:09;18.50;81.20
30648;DHT22;17683;53.360;9.736;2022-09-03T19:11:05;18.40;81.90
30648;DHT22;17683;53.360;9.736;2022-09-03T19:13:52;18.40;81.60
30648;DHT22;17683;53.360;9.736;2022-09-03T19:17:05;18.30;82.00
30648;DHT22;17683;53.360;9.736;2022-09-03T19:22:54;18.20;81.50
30648;DHT22;17683;53.360;9.736;2022-09-03T19:25:39;18.20;81.40
30648;DHT22;17683;53.360;9.736;2022-09-03T19:28:25;18.20;81.70
30648;DHT22;17683;53.360;9.736;2022-09-03T19:31:26;18.20;81.80
30648;DHT22;17683;53.360;9.736;2022-09-03T19:38:03;18.10;82.40
30648;DHT22;17683;53.360;9.736;2022-09-03T19:47:08;18.00;82.10
30648;DHT22;17683;53.360;9.736;2022-09-03T19:52:57;17.90;82.00
30648;DHT22;17683;53.360;9.736;2022-09-03T19:55:53;17.90;82.70
30648;DHT22;17683;53.360;9.736;2022-09-03T19:59:23;17.90;82.50
30648;DHT22;17683;53.360;9.736;2022-09-03T20:01:48;17.80;83.40
30648;DHT22;17683;53.360;9.736;2022-09-03T20:04:43;17.80;82.90
30648;DHT22;17683;53.360;9.736;2022-09-03T20:07:29;17.80;83.10
30648;DHT22;17683;53.360;9.736;2022-09-03T20:10:15;17.80;83.50
30648;DHT22;17683;53.360;9.736;2022-09-03T20:13:07;17.70;83.70
30648;DHT22;17683;53.360;9.736;2022-09-03T20:23:48;17.60;83.70
30648;DHT22;17683;53.360;9.736;2022-09-03T20:27:13;17.60;83.50
30648;DHT22;17683;53.360;9.736;2022-09-03T20:41:28;17.50;84.40
30648;DHT22;17683;53.360;9.736;2022-09-03T20:52:07;17.40;84.30
30648;DHT22;17683;53.360;9.736;2022-09-03T20:54:45;17.40;84.40
30648;DHT22;17683;53.360;9.736;2022-09-03T20:57:23;17.30;84.10
30648;DHT22;17683;53.360;9.736;2022-09-03T21:00:09;17.30;83.90
30648;DHT22;17683;53.360;9.736;2022-09-03T21:05:53;17.30;83.80
30648;DHT22;17683;53.360;9.736;2022-09-03T21:11:06;17.20;84.30
30648;DHT22;17683;53.360;9.736;2022-09-03T21:22:48;17.10;84.50
30648;DHT22;17683;53.360;9.736;2022-09-03T21:25:27;17.10;84.40
30648;DHT22;17683;53.360;9.736;2022-09-03T21:28:00;17.10;84.60
30648;DHT22;17683;53.360;9.736;2022-09-03T21:30:29;17.10;84.40
30648;DHT22;17683;53.360;9.736;2022-09-03T21:33:01;17.10;84.90
30648;DHT22;17683;53.360;9.736;2022-09-03T21:35:48;17.20;84.50
30648;DHT22;17683;53.360;9.736;2022-09-03T21:38:18;17.20;84.40
30648;DHT22;17683;53.360;9.736;2022-09-03T21:43:49;17.20;84.30
30648;DHT22;17683;53.360;9.736;2022-09-03T21:46:26;17.20;84.80
30648;DHT22;17683;53.360;9.736;2022-09-03T21:49:15;17.20;84.70
30648;DHT22;17683;53.360;9.736;2022-09-03T21:52:06;17.20;84.80
30648;DHT22;17683;53.360;9.736;2022-09-03T21:54:33;17.20;85.40